createdAt,value
2023-07-08T00:01:21.280Z,14.57
2023-07-08T00:03:49.355Z,10.48
2023-07-08T00:06:20.843Z,10.70
2023-07-08T00:08:48.254Z,12.43
2023-07-08T00:11:17.002Z,9.95
2023-07-08T00:13:43.951Z,11.50
2023-07-08T00:16:16.491Z,10.02
2023-07-08T00:18:43.282Z,12.98
2023-07-08T00:21:17.856Z,10.32
2023-07-08T00:23:48.213Z,13.65
2023-07-08T00:26:21.687Z,12.18
2023-07-08T00:28:48.470Z,15.48
2023-07-08T00:31:16.641Z,11.65
2023-07-08T00:33:49.510Z,11.73
2023-07-08T00:36:18.520Z,10.65
2023-07-08T00:38:46.547Z,10.80
2023-07-08T00:41:31.640Z,14.82
2023-07-08T00:44:00.275Z,12.88
2023-07-08T00:46:33.110Z,13.02
2023-07-08T00:49:09.477Z,14.10
2023-07-08T00:51:42.987Z,12.20
2023-07-08T00:54:14.197Z,16.67
2023-07-08T00:57:00.788Z,14.93
2023-07-08T00:59:32.519Z,14.60
2023-07-08T01:02:03.597Z,13.98
2023-07-08T01:04:54.713Z,12.85
2023-07-08T01:07:22.894Z,15.68
2023-07-08T01:10:02.123Z,17.85
2023-07-08T01:12:38.087Z,14.68
2023-07-08T01:15:07.918Z,12.85
2023-07-08T01:17:35.195Z,15.63
2023-07-08T01:20:07.259Z,18.38
2023-07-08T01:22:37.937Z,17.35
2023-07-08T01:25:05.663Z,16.08
2023-07-08T01:27:36.663Z,16.85
2023-07-08T01:30:05.764Z,15.35
2023-07-08T01:32:35.516Z,19.20
2023-07-08T01:35:04.404Z,19.10
2023-07-08T01:37:36.940Z,18.17
2023-07-08T01:40:22.546Z,17.33
2023-07-08T01:42:49.289Z,21.63
2023-07-08T01:45:18.950Z,20.63
2023-07-08T01:47:53.037Z,20.23
2023-07-08T01:50:21.228Z,21.27
2023-07-08T01:52:51.138Z,24.27
2023-07-08T01:55:23.626Z,21.65
2023-07-08T01:57:52.763Z,27.08
2023-07-08T02:00:20.590Z,23.20
2023-07-08T02:02:49.891Z,17.33
2023-07-08T02:05:17.991Z,21.67
2023-07-08T02:07:44.793Z,19.52
2023-07-08T02:10:11.788Z,21.00
2023-07-08T02:12:39.645Z,20.10
2023-07-08T02:15:07.213Z,26.08
2023-07-08T02:17:34.369Z,23.42
2023-07-08T02:20:01.212Z,21.48
2023-07-08T02:22:28.121Z,25.52
2023-07-08T02:24:55.346Z,20.88
2023-07-08T02:27:22.105Z,26.00
2023-07-08T02:29:48.883Z,24.63
2023-07-08T02:32:15.967Z,24.15
2023-07-08T02:34:42.784Z,23.80
2023-07-08T02:37:09.517Z,22.20
2023-07-08T02:39:36.339Z,21.50
2023-07-08T02:42:03.172Z,23.58
2023-07-08T02:44:29.966Z,20.58
2023-07-08T02:46:56.710Z,21.45
2023-07-08T02:49:23.730Z,22.13
2023-07-08T02:51:50.435Z,19.80
2023-07-08T02:54:17.240Z,20.63
2023-07-08T02:56:44.027Z,20.00
2023-07-08T02:59:10.833Z,26.50
2023-07-08T03:01:42.871Z,20.08
2023-07-08T03:04:14.221Z,22.85
2023-07-08T03:06:44.961Z,22.45
2023-07-08T03:09:13.927Z,22.48
2023-07-08T03:11:41.312Z,24.17
2023-07-08T03:14:11.461Z,24.05
2023-07-08T03:16:38.366Z,21.60
2023-07-08T03:19:05.981Z,20.52
2023-07-08T03:21:32.955Z,17.73
2023-07-08T03:23:59.700Z,19.80
2023-07-08T03:26:30.564Z,19.02
2023-07-08T03:28:59.961Z,22.17
2023-07-08T03:31:26.783Z,23.95
2023-07-08T03:33:53.597Z,23.92
2023-07-08T03:36:26.607Z,18.55
2023-07-08T03:38:56.748Z,19.52
2023-07-08T03:41:24.753Z,19.38
2023-07-08T03:43:54.511Z,17.83
2023-07-08T03:48:49.797Z,18.92
2023-07-08T03:51:29.808Z,21.38
2023-07-08T03:53:56.815Z,19.48
2023-07-08T03:56:23.776Z,19.42
2023-07-08T03:58:52.369Z,18.55
2023-07-08T04:01:22.110Z,19.55
2023-07-08T04:06:16.161Z,21.35
2023-07-08T04:08:43.511Z,22.55
2023-07-08T04:11:21.579Z,20.20
2023-07-08T04:13:48.933Z,21.10
2023-07-08T04:16:23.278Z,22.80
2023-07-08T04:18:52.215Z,22.20
2023-07-08T04:23:48.936Z,20.17
2023-07-08T04:26:16.216Z,21.65
2023-07-08T04:28:44.141Z,17.70
2023-07-08T04:31:11.790Z,20.42
2023-07-08T04:33:38.651Z,21.50
2023-07-08T04:36:10.962Z,21.55
2023-07-08T04:38:37.866Z,25.48
2023-07-08T04:41:04.732Z,20.23
2023-07-08T04:43:31.489Z,18.40
2023-07-08T04:45:59.086Z,17.73
2023-07-08T04:48:26.409Z,20.42
2023-07-08T04:50:54.491Z,20.67
2023-07-08T04:53:21.443Z,21.52
2023-07-08T04:55:52.159Z,24.35
2023-07-08T04:58:19.156Z,18.98
2023-07-08T05:00:45.983Z,17.63
2023-07-08T05:03:13.100Z,21.67
2023-07-08T05:05:39.887Z,23.13
2023-07-08T05:08:07.792Z,19.15
2023-07-08T05:10:34.911Z,23.58
2023-07-08T05:13:01.986Z,19.15
2023-07-08T05:15:28.759Z,20.55
2023-07-08T05:17:55.546Z,21.35
2023-07-08T05:20:23.345Z,21.23
2023-07-08T05:22:50.078Z,18.48
2023-07-08T05:25:17.252Z,19.20
2023-07-08T05:27:44.123Z,15.40
2023-07-08T05:30:15.963Z,17.48
2023-07-08T05:32:42.915Z,16.27
2023-07-08T05:35:11.077Z,14.48
2023-07-08T05:37:38.506Z,14.85
2023-07-08T05:40:06.111Z,14.02
2023-07-08T05:42:33.115Z,15.05
2023-07-08T05:44:59.945Z,14.27
2023-07-08T05:47:27.786Z,14.60
2023-07-08T05:49:54.617Z,13.20
2023-07-08T05:52:21.626Z,16.15
2023-07-08T05:54:48.489Z,13.13
2023-07-08T05:57:15.228Z,14.23
2023-07-08T05:59:44.405Z,12.82
2023-07-08T06:02:13.246Z,11.68
2023-07-08T06:04:40.889Z,11.82
2023-07-08T06:07:07.873Z,15.10
2023-07-08T06:09:35.183Z,12.05
2023-07-08T06:12:01.915Z,10.93
2023-07-08T06:14:29.254Z,13.65
2023-07-08T06:16:56.754Z,9.35
2023-07-08T06:19:23.755Z,9.00
2023-07-08T06:21:50.583Z,11.20
2023-07-08T06:24:17.863Z,9.17
2023-07-08T06:26:44.594Z,10.40
2023-07-08T06:29:11.330Z,10.07
2023-07-08T06:31:38.132Z,9.27
2023-07-08T06:34:05.431Z,10.73
2023-07-08T06:36:32.800Z,9.75
2023-07-08T06:41:26.207Z,11.40
2023-07-08T06:43:53.809Z,8.85
2023-07-08T06:46:21.189Z,9.65
2023-07-08T06:48:48.461Z,8.45
2023-07-08T06:53:41.956Z,11.07
2023-07-08T06:56:09.433Z,7.20
2023-07-08T06:58:36.455Z,6.95
2023-07-08T07:01:04.106Z,5.93
2023-07-08T07:03:31.240Z,8.65
2023-07-08T07:05:58.105Z,6.30
2023-07-08T07:08:25.159Z,6.20
2023-07-08T07:13:19.848Z,8.07
2023-07-08T07:15:52.402Z,8.30
2023-07-08T07:18:19.627Z,11.30
2023-07-08T07:23:22.049Z,6.60
2023-07-08T07:25:48.787Z,9.07
2023-07-08T07:28:17.868Z,7.28
2023-07-08T07:30:46.172Z,6.28
2023-07-08T07:33:13.905Z,6.47
2023-07-08T07:35:47.357Z,6.38
2023-07-08T07:38:15.985Z,4.35
2023-07-08T07:40:42.832Z,5.20
2023-07-08T07:43:09.872Z,6.78
2023-07-08T07:45:37.007Z,13.55
2023-07-08T07:48:04.409Z,8.98
2023-07-08T07:50:32.132Z,5.40
2023-07-08T07:52:59.860Z,4.30
2023-07-08T07:55:27.125Z,8.38
2023-07-08T07:57:53.913Z,6.55
2023-07-08T08:00:20.860Z,7.85
2023-07-08T08:02:47.926Z,4.82
2023-07-08T08:05:14.849Z,4.45
2023-07-08T08:07:42.148Z,5.28
2023-07-08T08:10:11.280Z,5.65
2023-07-08T08:12:48.603Z,7.50
2023-07-08T08:15:19.663Z,7.10
2023-07-08T08:17:50.172Z,4.63
2023-07-08T08:20:17.466Z,4.03
2023-07-08T08:22:44.614Z,2.92
2023-07-08T08:25:11.576Z,4.25
2023-07-08T08:27:38.605Z,3.58
2023-07-08T08:30:07.136Z,2.92
2023-07-08T08:32:34.281Z,5.22
2023-07-08T08:35:02.957Z,4.20
2023-07-08T08:37:30.613Z,3.42
2023-07-08T08:39:57.561Z,4.97
2023-07-08T08:42:33.844Z,3.15
2023-07-08T08:45:03.700Z,2.97
2023-07-08T08:47:40.433Z,3.35
2023-07-08T08:50:29.477Z,4.72
2023-07-08T08:52:57.987Z,4.65
2023-07-08T08:55:26.368Z,3.08
2023-07-08T08:58:12.608Z,3.10
2023-07-08T09:00:48.157Z,4.13
2023-07-08T09:03:34.127Z,4.43
2023-07-08T09:06:02.164Z,2.70
2023-07-08T09:08:33.488Z,3.13
2023-07-08T09:11:22.095Z,3.03
2023-07-08T09:13:50.208Z,2.80
2023-07-08T09:16:44.587Z,2.40
2023-07-08T09:19:26.695Z,2.75
2023-07-08T09:22:05.849Z,3.30
2023-07-08T09:24:46.227Z,3.35
2023-07-08T09:27:13.112Z,2.92
2023-07-08T09:29:39.887Z,2.88
2023-07-08T09:32:23.038Z,3.83
2023-07-08T09:34:56.808Z,4.22
2023-07-08T09:37:47.251Z,3.08
2023-07-08T09:40:33.749Z,3.10
2023-07-08T09:43:14.978Z,3.80
2023-07-08T09:45:45.775Z,4.53
2023-07-08T09:48:31.514Z,3.63
2023-07-08T09:51:00.021Z,2.78
2023-07-08T09:53:30.576Z,4.75
2023-07-08T09:56:03.921Z,3.78
2023-07-08T09:58:35.515Z,4.10
2023-07-08T10:01:11.903Z,4.15
2023-07-08T10:03:40.787Z,3.58
2023-07-08T10:06:23.291Z,3.80
2023-07-08T10:08:50.430Z,4.18
2023-07-08T10:11:28.383Z,3.88
2023-07-08T10:14:13.408Z,5.47
2023-07-08T10:16:41.441Z,5.38
2023-07-08T10:19:17.673Z,4.78
2023-07-08T10:21:59.250Z,3.85
2023-07-08T10:24:34.909Z,6.28
2023-07-08T10:27:20.024Z,5.22
2023-07-08T10:30:07.367Z,3.30
2023-07-08T10:33:14.549Z,3.88
2023-07-08T10:36:23.184Z,3.70
2023-07-08T10:38:55.116Z,4.88
2023-07-08T10:42:01.632Z,3.10
2023-07-08T10:44:39.104Z,4.18
2023-07-08T10:47:46.299Z,4.95
2023-07-08T10:50:28.952Z,2.85
2023-07-08T10:53:10.585Z,3.97
2023-07-08T10:55:51.810Z,5.20
2023-07-08T10:58:33.471Z,4.15
2023-07-08T11:01:06.642Z,3.42
2023-07-08T11:03:46.324Z,4.25
2023-07-08T11:06:27.925Z,3.53
2023-07-08T11:09:03.288Z,5.45
2023-07-08T11:11:52.459Z,4.25
2023-07-08T11:14:50.995Z,5.40
2023-07-08T11:17:31.924Z,4.68
2023-07-08T11:20:19.678Z,4.15
2023-07-08T11:22:59.802Z,3.00
2023-07-08T11:25:30.846Z,3.92
2023-07-08T11:28:04.090Z,3.05
2023-07-08T11:30:34.339Z,3.25
2023-07-08T11:33:10.222Z,5.22
2023-07-08T11:35:48.050Z,3.55
2023-07-08T11:38:19.470Z,3.70
2023-07-08T11:41:01.694Z,3.60
2023-07-08T11:43:57.268Z,5.20
2023-07-08T11:46:31.515Z,3.00
2023-07-08T11:49:15.650Z,6.53
2023-07-08T11:51:47.068Z,2.67
2023-07-08T11:54:30.532Z,3.17
2023-07-08T11:57:25.264Z,3.08
2023-07-08T12:00:14.126Z,4.60
2023-07-08T12:02:59.531Z,2.83
2023-07-08T12:05:36.877Z,6.15
2023-07-08T12:08:12.531Z,5.22
2023-07-08T12:10:44.900Z,2.88
2023-07-08T12:13:18.439Z,3.03
2023-07-08T12:15:45.430Z,3.08
2023-07-08T12:18:23.613Z,2.90
2023-07-08T12:20:56.471Z,5.30
2023-07-08T12:23:25.534Z,3.42
2023-07-08T12:25:54.429Z,5.25
2023-07-08T12:28:22.875Z,2.78
2023-07-08T12:30:52.466Z,4.03
2023-07-08T12:33:33.186Z,2.58
2023-07-08T12:36:02.238Z,6.43
2023-07-08T12:38:33.883Z,3.63
2023-07-08T12:41:06.929Z,3.40
2023-07-08T12:43:33.934Z,2.85
2023-07-08T12:46:00.709Z,3.08
2023-07-08T12:48:33.058Z,3.88
2023-07-08T12:50:59.964Z,3.75
2023-07-08T12:53:27.181Z,2.45
2023-07-08T12:55:56.493Z,3.58
2023-07-08T12:58:29.790Z,2.80
2023-07-08T13:00:59.669Z,2.75
2023-07-08T13:03:32.527Z,4.82
2023-07-08T13:06:02.123Z,3.22
2023-07-08T13:08:35.989Z,2.75
2023-07-08T13:11:07.446Z,4.75
2023-07-08T13:13:41.536Z,3.83
2023-07-08T13:16:11.690Z,3.65
2023-07-08T13:18:42.297Z,4.97
2023-07-08T13:21:13.734Z,4.75
2023-07-08T13:23:41.653Z,3.28
2023-07-08T13:26:23.056Z,3.15
2023-07-08T13:28:51.273Z,3.00
2023-07-08T13:31:25.532Z,4.75
2023-07-08T13:33:55.074Z,4.22
2023-07-08T13:36:36.133Z,3.85
2023-07-08T13:39:07.924Z,3.53
2023-07-08T13:41:35.571Z,5.85
2023-07-08T13:44:07.723Z,3.42
2023-07-08T13:46:42.061Z,2.67
2023-07-08T13:49:15.884Z,3.65
2023-07-08T13:51:43.338Z,2.53
2023-07-08T13:54:40.038Z,3.42
2023-07-08T13:57:18.515Z,2.47
2023-07-08T13:59:46.182Z,3.42
2023-07-08T14:02:24.629Z,2.83
2023-07-08T14:04:53.857Z,3.00
2023-07-08T14:07:23.678Z,4.35
2023-07-08T14:09:50.798Z,2.50
2023-07-08T14:12:17.562Z,4.05
2023-07-08T14:14:44.304Z,2.55
2023-07-08T14:17:15.751Z,3.28
2023-07-08T14:19:42.534Z,3.97
2023-07-08T14:22:29.386Z,2.75
2023-07-08T14:24:58.095Z,2.80
2023-07-08T14:27:25.630Z,2.78
2023-07-08T14:29:53.492Z,4.53
2023-07-08T14:32:32.242Z,2.67
2023-07-08T14:35:12.150Z,3.03
2023-07-08T14:37:41.154Z,5.80
2023-07-08T14:40:32.955Z,3.28
2023-07-08T14:43:03.132Z,2.83
2023-07-08T14:45:33.135Z,4.68
2023-07-08T14:48:00.281Z,2.88
2023-07-08T14:50:31.636Z,3.30
2023-07-08T14:52:58.484Z,4.00
2023-07-08T14:55:26.101Z,3.40
2023-07-08T14:57:53.612Z,3.22
2023-07-08T15:00:20.821Z,4.10
2023-07-08T15:02:49.549Z,4.53
2023-07-08T15:05:24.285Z,4.80
2023-07-08T15:07:53.569Z,4.07
2023-07-08T15:10:25.388Z,6.60
2023-07-08T15:12:52.265Z,5.50
2023-07-08T15:15:29.873Z,4.25
2023-07-08T15:18:02.234Z,8.18
2023-07-08T15:20:33.653Z,6.05
2023-07-08T15:23:01.481Z,3.95
2023-07-08T15:25:28.712Z,4.20
2023-07-08T15:27:58.300Z,4.68
2023-07-08T15:30:29.254Z,4.65
2023-07-08T15:32:57.386Z,4.72
2023-07-08T15:35:27.096Z,4.20
2023-07-08T15:37:54.155Z,4.70
2023-07-08T15:40:23.833Z,4.28
2023-07-08T15:42:53.158Z,3.10
2023-07-08T15:45:41.687Z,4.68
2023-07-08T15:48:15.654Z,3.65
2023-07-08T15:50:43.422Z,3.22
2023-07-08T15:53:10.312Z,4.65
2023-07-08T15:55:45.658Z,5.88
2023-07-08T15:58:20.096Z,4.18
2023-07-08T16:00:46.974Z,3.38
2023-07-08T16:03:25.054Z,3.95
2023-07-08T16:05:53.527Z,5.03
2023-07-08T16:08:20.491Z,4.00
2023-07-08T16:10:53.787Z,4.40
2023-07-08T16:13:29.835Z,5.40
2023-07-08T16:15:56.799Z,3.80
2023-07-08T16:18:23.753Z,4.95
2023-07-08T16:20:50.785Z,5.20
2023-07-08T16:23:17.677Z,6.10
2023-07-08T16:25:47.340Z,4.63
2023-07-08T16:28:44.263Z,3.97
2023-07-08T16:31:16.169Z,3.50
2023-07-08T16:33:43.848Z,6.35
2023-07-08T16:36:16.672Z,4.03
2023-07-08T16:38:43.865Z,5.25
2023-07-08T16:41:13.885Z,4.47
2023-07-08T16:43:41.542Z,6.00
2023-07-08T16:46:13.974Z,7.13
2023-07-08T16:48:44.599Z,5.28
2023-07-08T16:51:21.159Z,3.42
2023-07-08T16:53:48.110Z,3.90
2023-07-08T16:56:19.315Z,4.60
2023-07-08T16:58:46.151Z,3.25
2023-07-08T17:01:21.034Z,3.40
2023-07-08T17:03:49.983Z,5.00
2023-07-08T17:06:16.953Z,5.03
2023-07-08T17:08:45.156Z,5.28
2023-07-08T17:11:14.517Z,5.50
2023-07-08T17:13:42.296Z,3.72
2023-07-08T17:16:15.089Z,6.13
2023-07-08T17:18:41.944Z,3.38
2023-07-08T17:21:14.066Z,3.95
2023-07-08T17:23:41.779Z,4.35
2023-07-08T17:26:08.719Z,4.00
2023-07-08T17:28:36.876Z,3.90
2023-07-08T17:31:05.456Z,4.97
2023-07-08T17:33:33.496Z,3.30
2023-07-08T17:36:00.993Z,6.47
2023-07-08T17:38:48.009Z,7.28
2023-07-08T17:41:20.730Z,5.35
2023-07-08T17:43:48.810Z,4.95
2023-07-08T17:46:20.575Z,4.25
2023-07-08T17:48:48.909Z,4.05
2023-07-08T17:51:17.293Z,4.78
2023-07-08T17:53:45.070Z,4.87
2023-07-08T17:56:19.363Z,5.53
2023-07-08T17:58:51.729Z,5.50
2023-07-08T18:01:20.431Z,4.13
2023-07-08T18:03:49.859Z,7.50
2023-07-08T18:06:17.858Z,4.88
2023-07-08T18:08:45.932Z,4.72
2023-07-08T18:11:15.095Z,5.03
2023-07-08T18:13:42.864Z,3.40
2023-07-08T18:16:17.897Z,4.40
2023-07-08T18:18:47.383Z,5.65
2023-07-08T18:21:20.346Z,4.43
2023-07-08T18:23:49.723Z,6.45
2023-07-08T18:26:27.507Z,5.38
2023-07-08T18:28:55.516Z,6.57
2023-07-08T18:31:32.170Z,6.65
2023-07-08T18:34:03.573Z,7.55
2023-07-08T18:36:31.085Z,8.57
2023-07-08T18:38:58.475Z,7.30
2023-07-08T18:41:29.644Z,6.03
2023-07-08T18:43:57.965Z,6.97
2023-07-08T18:46:25.505Z,7.18
2023-07-08T18:48:52.429Z,8.43
2023-07-08T18:51:27.047Z,8.13
2023-07-08T18:53:55.224Z,19.80
2023-07-08T18:56:22.053Z,9.55
2023-07-08T18:58:50.239Z,8.23
2023-07-08T19:01:28.433Z,9.13
2023-07-08T19:03:58.340Z,7.22
2023-07-08T19:06:26.206Z,10.82
2023-07-08T19:08:53.044Z,8.60
2023-07-08T19:11:23.435Z,6.72
2023-07-08T19:13:51.460Z,9.13
2023-07-08T19:16:21.596Z,13.18
2023-07-08T19:18:51.371Z,19.13
2023-07-08T19:21:28.128Z,12.25
2023-07-08T19:23:56.198Z,12.82
2023-07-08T19:26:25.822Z,9.57
2023-07-08T19:28:54.326Z,10.77
2023-07-08T19:31:29.626Z,7.65
2023-07-08T19:33:57.381Z,10.57
2023-07-08T19:36:24.324Z,11.02
2023-07-08T19:38:51.732Z,11.20
2023-07-08T19:41:25.263Z,16.40
2023-07-08T19:43:53.308Z,12.52
2023-07-08T19:46:20.260Z,15.25
2023-07-08T19:48:47.231Z,18.13
2023-07-08T19:51:14.436Z,13.15
2023-07-08T19:53:41.575Z,15.85
2023-07-08T19:56:16.856Z,11.48
2023-07-08T19:58:46.110Z,22.95
2023-07-08T20:01:13.535Z,15.38
2023-07-08T20:03:40.724Z,11.63
2023-07-08T20:06:21.696Z,10.60
2023-07-08T20:08:48.533Z,9.85
2023-07-08T20:11:16.668Z,8.25
2023-07-08T20:13:43.545Z,10.30
2023-07-08T20:16:26.266Z,9.65
2023-07-08T20:18:59.554Z,8.40
2023-07-08T20:21:27.195Z,9.77
2023-07-08T20:23:54.307Z,10.32
2023-07-08T20:26:34.054Z,10.77
2023-07-08T20:29:00.888Z,9.32
2023-07-08T20:31:28.664Z,11.85
2023-07-08T20:33:55.774Z,10.90
2023-07-08T20:36:25.071Z,10.63
2023-07-08T20:38:52.090Z,8.43
2023-07-08T20:41:19.798Z,10.45
2023-07-08T20:43:46.593Z,10.63
2023-07-08T20:46:20.954Z,11.48
2023-07-08T20:48:48.784Z,15.45
2023-07-08T20:51:16.474Z,10.68
2023-07-08T20:53:43.378Z,11.45
2023-07-08T20:56:23.848Z,11.80
2023-07-08T20:58:51.408Z,15.40
2023-07-08T21:01:18.270Z,12.23
2023-07-08T21:03:48.062Z,9.93
2023-07-08T21:06:24.104Z,9.10
2023-07-08T21:08:56.387Z,8.90
2023-07-08T21:11:23.193Z,9.77
2023-07-08T21:13:50.650Z,7.88
2023-07-08T21:16:24.475Z,12.77
2023-07-08T21:18:53.729Z,11.13
2023-07-08T21:21:21.855Z,9.32
2023-07-08T21:23:49.633Z,10.75
2023-07-08T21:26:25.812Z,7.78
2023-07-08T21:28:55.091Z,7.85
2023-07-08T21:31:22.009Z,7.80
2023-07-08T21:33:50.720Z,8.68
2023-07-08T21:36:24.956Z,7.90
2023-07-08T21:38:53.630Z,8.50
2023-07-08T21:41:21.053Z,12.67
2023-07-08T21:43:47.913Z,10.68
2023-07-08T21:46:14.840Z,8.65
2023-07-08T21:48:42.221Z,10.82
2023-07-08T21:51:27.362Z,8.70
2023-07-08T21:53:54.895Z,8.70
2023-07-08T21:56:21.965Z,7.15
2023-07-08T21:58:49.081Z,7.88
2023-07-08T22:01:27.755Z,9.63
2023-07-08T22:03:57.406Z,9.53
2023-07-08T22:06:25.269Z,6.72
2023-07-08T22:08:52.062Z,8.43
2023-07-08T22:11:26.996Z,8.13
2023-07-08T22:13:56.737Z,8.55
2023-07-08T22:16:24.963Z,7.95
2023-07-08T22:18:53.136Z,8.57
2023-07-08T22:21:29.759Z,7.47
2023-07-08T22:24:02.026Z,9.93
2023-07-08T22:26:29.893Z,12.13
2023-07-08T22:28:56.762Z,6.93
2023-07-08T22:31:27.370Z,6.95
2023-07-08T22:33:54.761Z,8.88
2023-07-08T22:36:22.358Z,7.80
2023-07-08T22:39:09.234Z,7.25
2023-07-08T22:41:46.113Z,7.78
2023-07-08T22:44:14.875Z,7.70
2023-07-08T22:46:42.203Z,7.50
2023-07-08T22:49:09.410Z,11.48
2023-07-08T22:51:42.753Z,9.55
2023-07-08T22:54:15.490Z,7.85
2023-07-08T22:56:42.770Z,7.88
2023-07-08T22:59:09.584Z,11.57
2023-07-08T23:01:36.405Z,7.53
2023-07-08T23:04:03.557Z,10.82
2023-07-08T23:06:30.701Z,10.00
2023-07-08T23:08:57.512Z,8.65
2023-07-08T23:11:24.535Z,8.25
2023-07-08T23:13:51.635Z,7.47
2023-07-08T23:16:27.004Z,8.23
2023-07-08T23:18:54.380Z,7.93
2023-07-08T23:21:23.911Z,9.82
2023-07-08T23:23:50.917Z,10.85
2023-07-08T23:26:23.676Z,10.63
2023-07-08T23:28:56.023Z,14.63
2023-07-08T23:31:23.481Z,9.45
2023-07-08T23:33:50.426Z,9.55
2023-07-08T23:36:35.710Z,7.47
2023-07-08T23:39:04.861Z,11.02
2023-07-08T23:41:33.292Z,8.18
2023-07-08T23:44:00.253Z,9.48
2023-07-08T23:46:31.865Z,8.10
2023-07-08T23:49:11.458Z,7.03
2023-07-08T23:54:11.156Z,9.07
2023-07-08T23:56:38.208Z,8.82
2023-07-08T23:59:05.025Z,11.20
